Resolve — WCZ5535 — position and weather

sailwx.info

Track history (hours):
 
Tides and Currents Weather Stations Pressure Air Temp Water Temp Dewpoint Dewpoint Depression Visibility Wind Speed Wind Dir Waves Ship Positions

Resolve

Owner: TOTE Services, Inc., Jacksonville, FL. More information available from US FCC via Universal Licensing System and Coast Guard Vessel Documentation Center.

Last reported at 2018-Apr-20 14:00 UTC. Time now 2018-Apr-20 14:28 UTC.
Position N 50°32' W 000°13'.

Type: Ship (hazmat cat D). MMSI: 338640000.

Date/timePositionNaut miles runAvg speedWind from/ knotsBaromVisibWave heightAir tempDewpointWater temp
2018-Apr-20 14:00N 50°32' W 000°13'3 5.7
2018-Apr-20 13:30N 50°33' W 000°18'3 6.4
2018-Apr-20 13:00N 50°32' W 000°22'2 4.1
2018-Apr-20 12:30N 50°31' W 000°19'2 3.8
2018-Apr-20 12:00N 50°31' W 000°16'2 3.6
2018-Apr-20 11:30N 50°31' W 000°14'2 3.7
2018-Apr-20 11:00N 50°30' W 000°11'2 4.0
2018-Apr-20 10:30N 50°31' W 000°08'2 4.3
2018-Apr-20 10:00N 50°31' W 000°04'2 4.9
2018-Apr-20 09:30N 50°32' W 000°01'3 5.6
2018-Apr-20 09:00N 50°32' E 000°04'3 6.3
2018-Apr-20 08:30N 50°33' E 000°08'4 7.2
2018-Apr-20 08:00N 50°34' E 000°14'815.6
2018-Apr-20 07:31N 50°36' E 000°26'612.1
2018-Apr-20 07:00N 50°39' E 000°34'611.1
2018-Apr-20 06:31N 50°42' E 000°42'510.8
2018-Apr-20 06:01N 50°45' E 000°49'510.3
2018-Apr-20 05:31N 50°48' E 000°55'510.0
2018-Apr-20 05:01N 50°51' E 001°02'5 9.5
2018-Apr-20 04:31N 50°54' E 001°08'5 8.9
2018-Apr-20 04:00N 50°57' E 001°13'4 8.1
2018-Apr-20 03:29N 50°59' E 001°18'3 7.3
2018-Apr-20 03:00N 51°02' E 001°22'3 7.1
2018-Apr-20 02:30N 51°04' E 001°27'4 7.6
2018-Apr-20 02:01N 51°06' E 001°31'4 8.1
2018-Apr-20 01:31N 51°09' E 001°36'4 8.8
2018-Apr-20 01:00N 51°12' E 001°41'5 9.5
2018-Apr-20 00:31N 51°15' E 001°47'510.8
2018-Apr-20 00:01N 51°20' E 001°51'612.0
2018-Apr-19 23:31N 51°25' E 001°55'612.1
2018-Apr-19 23:00N 51°30' E 002°01'612.1
2018-Apr-19 22:31N 51°34' E 002°08'612.0
2018-Apr-19 21:59N 51°39' E 002°15'611.8
2018-Apr-19 21:30N 51°43' E 002°21'611.4
2018-Apr-19 20:59N 51°47' E 002°27'510.9
2018-Apr-19 20:30N 51°51' E 002°33'710.2
2018-Apr-19 19:50N 51°57' E 002°40'33 8.6
2018-Apr-19 16:03N 52°22' E 003°12'2 8.2
2018-Apr-19 15:52N 52°24' E 003°14'3 8.4
2018-Apr-19 15:30N 52°26' E 003°17'4912.9
2018-Apr-19 11:40N 53°04' E 004°10'516.9
2018-Apr-19 11:23N 53°07' E 004°16'616.7
2018-Apr-19 11:00N 53°11' E 004°24'816.5
2018-Apr-19 10:30N 53°18' E 004°29'815.9
2018-Apr-19 10:01N 53°26' E 004°35'714.3
2018-Apr-19 09:31N 53°31' E 004°44'815.2
2018-Apr-19 09:00N 53°33' E 004°56'715.0
2018-Apr-19 08:30N 53°36' E 005°07'714.7
2018-Apr-19 08:00N 53°38' E 005°19'714.9
2018-Apr-19 07:30N 53°40' E 005°31'714.3
2018-Apr-19 07:00N 53°42' E 005°43'714.9
2018-Apr-19 06:30N 53°45' E 005°55'815.7
2018-Apr-19 06:01N 53°48' E 006°07'816.3
2018-Apr-19 05:30N 53°51' E 006°20'916.6
2018-Apr-19 04:59N 53°52' E 006°34'1016.3
2018-Apr-19 04:23N 53°54' E 006°50'614.8
2018-Apr-19 03:59N 53°55' E 007°00'714.6
2018-Apr-19 03:30N 53°57' E 007°12'714.3
2018-Apr-19 02:59N 53°60' E 007°24'1912.0
2018-Apr-19 01:24N 53°52' E 007°53'512.9
2018-Apr-19 01:00N 53°51' E 008°02'612.0
2018-Apr-19 00:30N 53°47' E 008°10'611.5
2018-Apr-19 00:00N 53°43' E 008°17'611.1
2018-Apr-18 23:30N 53°39' E 008°24'510.0
2018-Apr-18 23:00N 53°36' E 008°30'3 6.0
2018-Apr-18 22:30N 53°34' E 008°33'0 0.9
2018-Apr-18 22:01N 53°34' E 008°33'1 1.0
2018-Apr-18 21:30N 53°35' E 008°33'0 0.0
2018-Apr-18 21:01N 53°35' E 008°33'0 0.0
2018-Apr-18 20:30N 53°35' E 008°33'0 0.0
2018-Apr-18 20:00N 53°35' E 008°33'0 0.0
2018-Apr-18 19:30N 53°35' E 008°33'0 0.0
2018-Apr-18 19:00N 53°35' E 008°33'0 0.0
2018-Apr-18 18:30N 53°35' E 008°33'0 0.0
2018-Apr-18 18:00N 53°35' E 008°33'0 0.0
2018-Apr-18 17:30N 53°35' E 008°33'0 0.0
2018-Apr-18 17:00N 53°35' E 008°33'0 0.0
2018-Apr-18 16:30N 53°35' E 008°33'0 0.0
2018-Apr-18 16:00N 53°35' E 008°33'0 0.0
2018-Apr-18 15:30N 53°35' E 008°33'0 0.0
2018-Apr-18 14:59N 53°35' E 008°33'0 0.0
2018-Apr-18 14:30N 53°35' E 008°33'0 0.0
2018-Apr-18 14:00N 53°35' E 008°33'0 0.0
2018-Apr-18 13:30N 53°35' E 008°33'0 0.0
2018-Apr-18 13:00N 53°35' E 008°33'0 0.0
2018-Apr-18 12:30N 53°35' E 008°33'0 0.0
2018-Apr-18 12:00N 53°35' E 008°33'0 0.0
2018-Apr-18 11:30N 53°35' E 008°33'0 0.0
2018-Apr-18 11:00N 53°35' E 008°33'0 0.0
2018-Apr-18 10:30N 53°35' E 008°33'0 0.0
2018-Apr-18 10:00N 53°35' E 008°33'0 0.0
2018-Apr-18 09:30N 53°35' E 008°33'0 0.0
2018-Apr-18 09:00N 53°35' E 008°33'0 0.0
2018-Apr-18 08:30N 53°35' E 008°33'0 0.0
2018-Apr-18 08:00N 53°35' E 008°33'0 0.0
2018-Apr-18 07:30N 53°35' E 008°33'0 0.0
2018-Apr-18 07:01N 53°35' E 008°33'0 0.0
2018-Apr-18 06:30N 53°35' E 008°33'0 0.0
2018-Apr-18 06:00N 53°35' E 008°33'0 0.0
2018-Apr-18 05:30N 53°35' E 008°33'0 0.0
2018-Apr-18 05:00N 53°35' E 008°33'0 0.0
2018-Apr-18 04:30N 53°35' E 008°33'0 0.0
2018-Apr-18 04:00N 53°35' E 008°33'0 0.0
2018-Apr-18 03:30N 53°35' E 008°33'0 0.0
2018-Apr-18 03:00N 53°35' E 008°33'0 0.0
2018-Apr-18 02:30N 53°35' E 008°33'0 0.0
2018-Apr-18 02:00N 53°35' E 008°33'0 0.0
2018-Apr-18 01:30N 53°35' E 008°33'0 0.0
2018-Apr-18 01:00N 53°35' E 008°33'0 0.0
2018-Apr-18 00:30N 53°35' E 008°33'0 0.0
2018-Apr-18 00:00N 53°35' E 008°33'0 0.0
2018-Apr-17 23:30N 53°35' E 008°33'0 0.0
2018-Apr-17 23:00N 53°35' E 008°33'0 0.0
2018-Apr-17 22:30N 53°35' E 008°33'1 1.9
2018-Apr-17 22:00N 53°34' E 008°34'0 0.1
2018-Apr-17 21:30N 53°34' E 008°34'0 0.0
2018-Apr-17 21:00N 53°34' E 008°34'0 0.0
2018-Apr-17 20:30N 53°34' E 008°34'0 0.0
2018-Apr-17 20:00N 53°34' E 008°34'0 0.0
2018-Apr-17 19:30N 53°34' E 008°34'0 0.0
2018-Apr-17 19:00N 53°34' E 008°34'0 0.0
2018-Apr-17 18:30N 53°34' E 008°34'0 0.0
2018-Apr-17 18:00N 53°34' E 008°34'0 0.0
2018-Apr-17 17:30N 53°34' E 008°34'0 0.0
2018-Apr-17 17:00N 53°34' E 008°34'0 0.0
2018-Apr-17 16:30N 53°34' E 008°34'0 0.0
2018-Apr-17 16:00N 53°34' E 008°34'0 0.0
2018-Apr-17 15:30N 53°34' E 008°34'0 0.0
2018-Apr-17 15:00N 53°34' E 008°34'0 0.0
2018-Apr-17 14:30N 53°34' E 008°34'0 0.0
2018-Apr-17 13:59N 53°34' E 008°34'0 0.0
2018-Apr-17 13:30N 53°34' E 008°34'0 0.0
2018-Apr-17 13:00N 53°34' E 008°34'0 0.0
2018-Apr-17 12:29N 53°34' E 008°34'0 0.0
2018-Apr-17 12:01N 53°34' E 008°34'0 0.0
2018-Apr-17 11:31N 53°34' E 008°34'0 0.0
2018-Apr-17 11:00N 53°34' E 008°34'0 0.0
2018-Apr-17 10:30N 53°34' E 008°34'0 0.0
2018-Apr-17 10:00N 53°34' E 008°34'0 0.0
2018-Apr-17 09:30N 53°34' E 008°34'0 0.0
2018-Apr-17 09:00N 53°34' E 008°34'0 0.0
2018-Apr-17 08:30N 53°34' E 008°34'0 0.0
2018-Apr-17 08:00N 53°34' E 008°34'0 0.0
2018-Apr-17 07:30N 53°34' E 008°34'0 0.0
2018-Apr-17 07:00N 53°34' E 008°34'0 0.0
2018-Apr-17 06:31N 53°34' E 008°34'0 0.0
2018-Apr-17 06:00N 53°34' E 008°34'0 0.0
2018-Apr-17 05:30N 53°34' E 008°34'0 0.0
2018-Apr-17 05:00N 53°34' E 008°34'0 0.0
2018-Apr-17 04:30N 53°34' E 008°34'0 0.0
2018-Apr-17 04:00N 53°34' E 008°34'0 0.0
2018-Apr-17 03:30N 53°34' E 008°34'0 0.5
2018-Apr-17 03:01N 53°34' E 008°34'0 0.5
2018-Apr-17 02:30N 53°33' E 008°34'0 0.6
2018-Apr-17 02:00N 53°33' E 008°34'4 8.5
2018-Apr-17 01:30N 53°37' E 008°30'713.0
2018-Apr-17 01:00N 53°41' E 008°21'611.6
2018-Apr-17 00:30N 53°44' E 008°13'611.7
2018-Apr-17 00:00N 53°49' E 008°07'611.9
2018-Apr-16 23:30N 53°51' E 007°58'711.1
2018-Apr-16 22:55N 53°53' E 007°47'4 8.4
2018-Apr-16 22:29N 53°53' E 007°41'4 8.6
2018-Apr-16 21:58N 53°54' E 007°33'3 1.5
2018-Apr-16 20:02N 53°52' E 007°31'1 4.3
2018-Apr-16 19:54N 53°52' E 007°32'1 3.3
2018-Apr-16 19:30N 53°52' E 007°34'7413.0
2018-Apr-16 13:46N 53°35' E 005°31'414.9
2018-Apr-16 13:29N 53°33' E 005°25'714.9
2018-Apr-16 13:00N 53°31' E 005°14'815.1
2018-Apr-16 12:30N 53°28' E 005°02'815.5
2018-Apr-16 12:00N 53°25' E 004°50'714.6
2018-Apr-16 11:30N 53°20' E 004°41'915.6
2018-Apr-16 10:57N 53°13' E 004°33'715.4
2018-Apr-16 10:29N 53°07' E 004°26'715.5
2018-Apr-16 10:00N 53°00' E 004°21'815.4
2018-Apr-16 09:30N 52°53' E 004°17'815.1
2018-Apr-16 09:00N 52°47' E 004°10'815.1
2018-Apr-16 08:29N 52°41' E 004°02'915.3
2018-Apr-16 07:55N 52°35' E 003°51'715.5
2018-Apr-16 07:27N 52°30' E 003°43'715.6
2018-Apr-16 07:00N 52°24' E 003°36'816.0
2018-Apr-16 06:30N 52°17' E 003°31'816.2
2018-Apr-16 05:59N 52°09' E 003°27'916.3
2018-Apr-16 05:27N 52°00' E 003°24'916.3
2018-Apr-16 04:52N 51°51' E 003°21'614.6
2018-Apr-16 04:26N 51°46' E 003°16'4 9.5
2018-Apr-16 04:00N 51°41' E 003°14'816.7
2018-Apr-16 03:30N 51°34' E 003°10'917.9
2018-Apr-16 03:00N 51°27' E 003°00'714.0
2018-Apr-16 02:30N 51°24' E 003°10'815.5
2018-Apr-16 02:00N 51°25' E 003°23'714.3
2018-Apr-16 01:30N 51°26' E 003°34'4 8.6
2018-Apr-16 01:00N 51°26' E 003°41'612.7
2018-Apr-16 00:31N 51°21' E 003°47'611.8
2018-Apr-16 00:00N 51°23' E 003°56'4 7.9
2018-Apr-15 23:30N 51°25' E 004°02'510.3
2018-Apr-15 23:00N 51°23' E 004°10'5 9.9
2018-Apr-15 22:30N 51°20' E 004°16'4 7.1
2018-Apr-15 22:00N 51°17' E 004°15'0 0.3
2018-Apr-15 21:30N 51°17' E 004°15'0 0.0
2018-Apr-15 21:00N 51°17' E 004°15'1 2.5
2018-Apr-15 20:30N 51°16' E 004°14'0 0.4
2018-Apr-15 20:00N 51°15' E 004°14'0 0.0
2018-Apr-15 19:30N 51°15' E 004°14'0 0.0
2018-Apr-15 19:00N 51°15' E 004°14'0 0.0
2018-Apr-15 18:30N 51°15' E 004°14'0 0.0
2018-Apr-15 18:00N 51°15' E 004°14'0 0.0
2018-Apr-15 17:30N 51°15' E 004°14'0 0.0
2018-Apr-15 17:00N 51°15' E 004°14'0 0.0
2018-Apr-15 16:30N 51°15' E 004°14'0 0.0
2018-Apr-15 16:00N 51°15' E 004°14'0 0.0
2018-Apr-15 15:30N 51°15' E 004°14'0 0.0
2018-Apr-15 15:00N 51°15' E 004°14'0 0.0
2018-Apr-15 14:30N 51°15' E 004°14'0 0.0
2018-Apr-15 14:00N 51°15' E 004°14'0 0.0
2018-Apr-15 13:30N 51°15' E 004°14'0 0.0
2018-Apr-15 13:00N 51°15' E 004°14'0 0.0
2018-Apr-15 12:30N 51°15' E 004°14'0 0.0
2018-Apr-15 12:00N 51°15' E 004°14'0 0.0
2018-Apr-15 11:30N 51°15' E 004°14'0 0.0
2018-Apr-15 11:00N 51°15' E 004°14'0 0.0
2018-Apr-15 10:30N 51°15' E 004°14'0 0.0
2018-Apr-15 10:00N 51°15' E 004°14'0 0.0
2018-Apr-15 09:30N 51°15' E 004°14'0 0.0
2018-Apr-15 09:00N 51°15' E 004°14'0 0.0
2018-Apr-15 08:30N 51°15' E 004°14'0 0.0
2018-Apr-15 08:00N 51°15' E 004°14'0 0.0
2018-Apr-15 07:30N 51°15' E 004°14'0 0.0
2018-Apr-15 07:00N 51°15' E 004°14'0 0.0
2018-Apr-15 06:30N 51°15' E 004°14'0 0.0
2018-Apr-15 06:00N 51°15' E 004°14'0 0.0
2018-Apr-15 05:30N 51°15' E 004°14'0 0.0
2018-Apr-15 05:00N 51°15' E 004°14'0 0.0
2018-Apr-15 04:30N 51°15' E 004°14'0 0.0
2018-Apr-15 04:00N 51°15' E 004°14'0 0.0
2018-Apr-15 03:30N 51°15' E 004°14'0 0.0
2018-Apr-15 03:00N 51°15' E 004°14'0 0.0
2018-Apr-15 02:30N 51°15' E 004°14'0 0.0
2018-Apr-15 02:00N 51°15' E 004°14'0 0.0
2018-Apr-15 01:30N 51°15' E 004°14'0 0.0
2018-Apr-15 01:00N 51°15' E 004°14'0 0.0
2018-Apr-15 00:30N 51°15' E 004°14'0 0.0
2018-Apr-15 00:00N 51°15' E 004°14'0 0.0
2018-Apr-14 23:30N 51°15' E 004°14'0 0.0
2018-Apr-14 23:00N 51°15' E 004°14'0 0.0
2018-Apr-14 22:30N 51°15' E 004°14'0 0.0
2018-Apr-14 22:00N 51°15' E 004°14'0 0.0
2018-Apr-14 21:30N 51°15' E 004°14'0 0.0
2018-Apr-14 21:00N 51°15' E 004°14'0 0.0
2018-Apr-14 20:30N 51°15' E 004°14'0 0.0
2018-Apr-14 20:00N 51°15' E 004°14'0 0.0
2018-Apr-14 19:30N 51°15' E 004°14'0 0.0
2018-Apr-14 19:00N 51°15' E 004°14'0 0.0
2018-Apr-14 18:30N 51°15' E 004°14'0 0.0
2018-Apr-14 18:00N 51°15' E 004°14'0 0.0
2018-Apr-14 17:30N 51°15' E 004°14'0 0.0
2018-Apr-14 17:00N 51°15' E 004°14'1 2.7
2018-Apr-14 16:30N 51°17' E 004°15'0 0.1
2018-Apr-14 16:00N 51°17' E 004°15'0 0.5
2018-Apr-14 15:30N 51°17' E 004°15'2 4.4
2018-Apr-14 15:00N 51°19' E 004°16'5 9.2
2018-Apr-14 14:30N 51°23' E 004°13'611.1
2018-Apr-14 14:00N 51°22' E 004°04'5 9.1
2018-Apr-14 13:30N 51°25' E 003°58'713.5
2018-Apr-14 13:00N 51°21' E 003°49'713.3
2018-Apr-14 12:30N 51°26' E 003°42'510.7
2018-Apr-14 12:00N 51°25' E 003°33'714.0
2018-Apr-14 11:30N 51°24' E 003°22'816.1
2018-Apr-14 11:00N 51°24' E 003°09'815.3
2018-Apr-14 10:30N 51°23' E 002°57'815.3
2018-Apr-14 09:58N 51°22' E 002°44'4 7.8
2018-Apr-14 09:29N 51°22' E 002°38'612.8
2018-Apr-14 09:00N 51°22' E 002°28'714.5
2018-Apr-14 08:30N 51°18' E 002°18'713.1
2018-Apr-14 08:00N 51°15' E 002°09'713.2
2018-Apr-14 07:30N 51°12' E 001°59'714.0
2018-Apr-14 07:00N 51°08' E 001°50'714.0
2018-Apr-14 06:30N 51°03' E 001°43'714.2
2018-Apr-14 06:00N 50°58' E 001°35'1513.6
2018-Apr-14 04:54N 50°45' E 001°24'1013.8
2018-Apr-14 04:11N 50°37' E 001°14'1314.1
2018-Apr-14 03:15N 50°29' E 000°57'614.3
2018-Apr-14 02:49N 50°27' E 000°48'514.3
2018-Apr-14 02:30N 50°25' E 000°42'914.3
2018-Apr-14 01:54N 50°22' E 000°29'514.2
2018-Apr-14 01:30N 50°21' E 000°21'714.0
2018-Apr-14 01:01N 50°19' E 000°10'714.2
2018-Apr-14 00:30N 50°19' W 000°01'714.2
2018-Apr-14 00:01N 50°18' W 000°12'714.0
2018-Apr-13 23:30N 50°17' W 000°24'713.9
2018-Apr-13 22:59N 50°15' W 000°34'714.1
2018-Apr-13 22:31N 50°13' W 000°44'714.1
2018-Apr-13 22:00N 50°11' W 000°55'714.1
2018-Apr-13 21:31N 50°09' W 001°05'714.1
2018-Apr-13 21:01N 50°06' W 001°16'714.1
2018-Apr-13 20:30N 50°04' W 001°26'714.2
2018-Apr-13 20:00N 50°02' W 001°37'713.8
2018-Apr-13 19:30N 50°00' W 001°47'714.3
2018-Apr-13 19:01N 49°59' W 001°58'714.7
2018-Apr-13 18:31N 49°57' W 002°09'1714.5
2018-Apr-13 17:22N 49°52' W 002°34'614.4
2018-Apr-13 16:57N 49°51' W 002°43'614.4
2018-Apr-13 16:30N 49°49' W 002°52'814.4
2018-Apr-13 15:56N 49°47' W 003°05'715.4
2018-Apr-13 15:29N 49°45' W 003°15'715.3
2018-Apr-13 15:00N 49°43' W 003°25'54514.7
2018-Apr-12 02:00N 47°48' W 016°54'3417.2 200 / 34993.9 13.011.3
2018-Apr-12 00:00N 47°36' W 017°42'19516.3 270 / 22996.1 12.010.2
2018-Apr-11 12:00N 46°30' W 022°12'9415.7 230 / 191003.9 2.2 14.014.0
2018-Apr-11 06:00N 45°54' W 024°18'19015.8 320 / 161008.2 15.013.3
2018-Apr-10 18:00N 44°36' W 028°24'   240 / 171016.7 5.4 20.016.9
Track history (hours):
 
Tides and Currents Weather Stations Pressure Air Temp Water Temp Dewpoint Dewpoint Depression Visibility Wind Speed Wind Dir Waves Ship Positions

Resolve

Owner: TOTE Services, Inc., Jacksonville, FL. More information available from US FCC via Universal Licensing System and Coast Guard Vessel Documentation Center.

Last reported at 2018-Apr-20 14:00 UTC. Time now 2018-Apr-20 14:28 UTC.
Position N 50°32' W 000°13'.

Type: Ship (hazmat cat D). MMSI: 338640000.

Date/timePositionNaut miles runAvg speedWind from/ knotsBaromVisibWave heightAir tempDewpointWater temp
2018-Apr-20 14:00N 50°32' W 000°13'3 5.7
2018-Apr-20 13:30N 50°33' W 000°18'3 6.4
2018-Apr-20 13:00N 50°32' W 000°22'2 4.1
2018-Apr-20 12:30N 50°31' W 000°19'2 3.8
2018-Apr-20 12:00N 50°31' W 000°16'2 3.6
2018-Apr-20 11:30N 50°31' W 000°14'2 3.7
2018-Apr-20 11:00N 50°30' W 000°11'2 4.0
2018-Apr-20 10:30N 50°31' W 000°08'2 4.3
2018-Apr-20 10:00N 50°31' W 000°04'2 4.9
2018-Apr-20 09:30N 50°32' W 000°01'3 5.6
2018-Apr-20 09:00N 50°32' E 000°04'3 6.3
2018-Apr-20 08:30N 50°33' E 000°08'4 7.2
2018-Apr-20 08:00N 50°34' E 000°14'815.6
2018-Apr-20 07:31N 50°36' E 000°26'612.1
2018-Apr-20 07:00N 50°39' E 000°34'611.1
2018-Apr-20 06:31N 50°42' E 000°42'510.8
2018-Apr-20 06:01N 50°45' E 000°49'510.3
2018-Apr-20 05:31N 50°48' E 000°55'510.0
2018-Apr-20 05:01N 50°51' E 001°02'5 9.5
2018-Apr-20 04:31N 50°54' E 001°08'5 8.9
2018-Apr-20 04:00N 50°57' E 001°13'4 8.1
2018-Apr-20 03:29N 50°59' E 001°18'3 7.3
2018-Apr-20 03:00N 51°02' E 001°22'3 7.1
2018-Apr-20 02:30N 51°04' E 001°27'4 7.6
2018-Apr-20 02:01N 51°06' E 001°31'4 8.1
2018-Apr-20 01:31N 51°09' E 001°36'4 8.8
2018-Apr-20 01:00N 51°12' E 001°41'5 9.5
2018-Apr-20 00:31N 51°15' E 001°47'510.8
2018-Apr-20 00:01N 51°20' E 001°51'612.0
2018-Apr-19 23:31N 51°25' E 001°55'612.1
2018-Apr-19 23:00N 51°30' E 002°01'612.1
2018-Apr-19 22:31N 51°34' E 002°08'612.0
2018-Apr-19 21:59N 51°39' E 002°15'611.8
2018-Apr-19 21:30N 51°43' E 002°21'611.4
2018-Apr-19 20:59N 51°47' E 002°27'510.9
2018-Apr-19 20:30N 51°51' E 002°33'710.2
2018-Apr-19 19:50N 51°57' E 002°40'33 8.6
2018-Apr-19 16:03N 52°22' E 003°12'2 8.2
2018-Apr-19 15:52N 52°24' E 003°14'3 8.4
2018-Apr-19 15:30N 52°26' E 003°17'4912.9
2018-Apr-19 11:40N 53°04' E 004°10'516.9
2018-Apr-19 11:23N 53°07' E 004°16'616.7
2018-Apr-19 11:00N 53°11' E 004°24'816.5
2018-Apr-19 10:30N 53°18' E 004°29'815.9
2018-Apr-19 10:01N 53°26' E 004°35'714.3
2018-Apr-19 09:31N 53°31' E 004°44'815.2
2018-Apr-19 09:00N 53°33' E 004°56'715.0
2018-Apr-19 08:30N 53°36' E 005°07'714.7
2018-Apr-19 08:00N 53°38' E 005°19'714.9
2018-Apr-19 07:30N 53°40' E 005°31'714.3
2018-Apr-19 07:00N 53°42' E 005°43'714.9
2018-Apr-19 06:30N 53°45' E 005°55'815.7
2018-Apr-19 06:01N 53°48' E 006°07'816.3
2018-Apr-19 05:30N 53°51' E 006°20'916.6
2018-Apr-19 04:59N 53°52' E 006°34'1016.3
2018-Apr-19 04:23N 53°54' E 006°50'614.8
2018-Apr-19 03:59N 53°55' E 007°00'714.6
2018-Apr-19 03:30N 53°57' E 007°12'714.3
2018-Apr-19 02:59N 53°60' E 007°24'1912.0
2018-Apr-19 01:24N 53°52' E 007°53'512.9
2018-Apr-19 01:00N 53°51' E 008°02'612.0
2018-Apr-19 00:30N 53°47' E 008°10'611.5
2018-Apr-19 00:00N 53°43' E 008°17'611.1
2018-Apr-18 23:30N 53°39' E 008°24'510.0
2018-Apr-18 23:00N 53°36' E 008°30'3 6.0
2018-Apr-18 22:30N 53°34' E 008°33'0 0.9
2018-Apr-18 22:01N 53°34' E 008°33'1 1.0
2018-Apr-18 21:30N 53°35' E 008°33'0 0.0
2018-Apr-18 21:01N 53°35' E 008°33'0 0.0
2018-Apr-18 20:30N 53°35' E 008°33'0 0.0
2018-Apr-18 20:00N 53°35' E 008°33'0 0.0
2018-Apr-18 19:30N 53°35' E 008°33'0 0.0
2018-Apr-18 19:00N 53°35' E 008°33'0 0.0
2018-Apr-18 18:30N 53°35' E 008°33'0 0.0
2018-Apr-18 18:00N 53°35' E 008°33'0 0.0
2018-Apr-18 17:30N 53°35' E 008°33'0 0.0
2018-Apr-18 17:00N 53°35' E 008°33'0 0.0
2018-Apr-18 16:30N 53°35' E 008°33'0 0.0
2018-Apr-18 16:00N 53°35' E 008°33'0 0.0
2018-Apr-18 15:30N 53°35' E 008°33'0 0.0
2018-Apr-18 14:59N 53°35' E 008°33'0 0.0
2018-Apr-18 14:30N 53°35' E 008°33'0 0.0
2018-Apr-18 14:00N 53°35' E 008°33'0 0.0
2018-Apr-18 13:30N 53°35' E 008°33'0 0.0
2018-Apr-18 13:00N 53°35' E 008°33'0 0.0
2018-Apr-18 12:30N 53°35' E 008°33'0 0.0
2018-Apr-18 12:00N 53°35' E 008°33'0 0.0
2018-Apr-18 11:30N 53°35' E 008°33'0 0.0
2018-Apr-18 11:00N 53°35' E 008°33'0 0.0
2018-Apr-18 10:30N 53°35' E 008°33'0 0.0
2018-Apr-18 10:00N 53°35' E 008°33'0 0.0
2018-Apr-18 09:30N 53°35' E 008°33'0 0.0
2018-Apr-18 09:00N 53°35' E 008°33'0 0.0
2018-Apr-18 08:30N 53°35' E 008°33'0 0.0
2018-Apr-18 08:00N 53°35' E 008°33'0 0.0
2018-Apr-18 07:30N 53°35' E 008°33'0 0.0
2018-Apr-18 07:01N 53°35' E 008°33'0 0.0
2018-Apr-18 06:30N 53°35' E 008°33'0 0.0
2018-Apr-18 06:00N 53°35' E 008°33'0 0.0
2018-Apr-18 05:30N 53°35' E 008°33'0 0.0
2018-Apr-18 05:00N 53°35' E 008°33'0 0.0
2018-Apr-18 04:30N 53°35' E 008°33'0 0.0
2018-Apr-18 04:00N 53°35' E 008°33'0 0.0
2018-Apr-18 03:30N 53°35' E 008°33'0 0.0
2018-Apr-18 03:00N 53°35' E 008°33'0 0.0
2018-Apr-18 02:30N 53°35' E 008°33'0 0.0
2018-Apr-18 02:00N 53°35' E 008°33'0 0.0
2018-Apr-18 01:30N 53°35' E 008°33'0 0.0
2018-Apr-18 01:00N 53°35' E 008°33'0 0.0
2018-Apr-18 00:30N 53°35' E 008°33'0 0.0
2018-Apr-18 00:00N 53°35' E 008°33'0 0.0
2018-Apr-17 23:30N 53°35' E 008°33'0 0.0
2018-Apr-17 23:00N 53°35' E 008°33'0 0.0
2018-Apr-17 22:30N 53°35' E 008°33'1 1.9
2018-Apr-17 22:00N 53°34' E 008°34'0 0.1
2018-Apr-17 21:30N 53°34' E 008°34'0 0.0
2018-Apr-17 21:00N 53°34' E 008°34'0 0.0
2018-Apr-17 20:30N 53°34' E 008°34'0 0.0
2018-Apr-17 20:00N 53°34' E 008°34'0 0.0
2018-Apr-17 19:30N 53°34' E 008°34'0 0.0
2018-Apr-17 19:00N 53°34' E 008°34'0 0.0
2018-Apr-17 18:30N 53°34' E 008°34'0 0.0
2018-Apr-17 18:00N 53°34' E 008°34'0 0.0
2018-Apr-17 17:30N 53°34' E 008°34'0 0.0
2018-Apr-17 17:00N 53°34' E 008°34'0 0.0
2018-Apr-17 16:30N 53°34' E 008°34'0 0.0
2018-Apr-17 16:00N 53°34' E 008°34'0 0.0
2018-Apr-17 15:30N 53°34' E 008°34'0 0.0
2018-Apr-17 15:00N 53°34' E 008°34'0 0.0
2018-Apr-17 14:30N 53°34' E 008°34'0 0.0
2018-Apr-17 13:59N 53°34' E 008°34'0 0.0
2018-Apr-17 13:30N 53°34' E 008°34'0 0.0
2018-Apr-17 13:00N 53°34' E 008°34'0 0.0
2018-Apr-17 12:29N 53°34' E 008°34'0 0.0
2018-Apr-17 12:01N 53°34' E 008°34'0 0.0
2018-Apr-17 11:31N 53°34' E 008°34'0 0.0
2018-Apr-17 11:00N 53°34' E 008°34'0 0.0
2018-Apr-17 10:30N 53°34' E 008°34'0 0.0
2018-Apr-17 10:00N 53°34' E 008°34'0 0.0
2018-Apr-17 09:30N 53°34' E 008°34'0 0.0
2018-Apr-17 09:00N 53°34' E 008°34'0 0.0
2018-Apr-17 08:30N 53°34' E 008°34'0 0.0
2018-Apr-17 08:00N 53°34' E 008°34'0 0.0
2018-Apr-17 07:30N 53°34' E 008°34'0 0.0
2018-Apr-17 07:00N 53°34' E 008°34'0 0.0
2018-Apr-17 06:31N 53°34' E 008°34'0 0.0
2018-Apr-17 06:00N 53°34' E 008°34'0 0.0
2018-Apr-17 05:30N 53°34' E 008°34'0 0.0
2018-Apr-17 05:00N 53°34' E 008°34'0 0.0
2018-Apr-17 04:30N 53°34' E 008°34'0 0.0
2018-Apr-17 04:00N 53°34' E 008°34'0 0.0
2018-Apr-17 03:30N 53°34' E 008°34'0 0.5
2018-Apr-17 03:01N 53°34' E 008°34'0 0.5
2018-Apr-17 02:30N 53°33' E 008°34'0 0.6
2018-Apr-17 02:00N 53°33' E 008°34'4 8.5
2018-Apr-17 01:30N 53°37' E 008°30'713.0
2018-Apr-17 01:00N 53°41' E 008°21'611.6
2018-Apr-17 00:30N 53°44' E 008°13'611.7
2018-Apr-17 00:00N 53°49' E 008°07'611.9
2018-Apr-16 23:30N 53°51' E 007°58'711.1
2018-Apr-16 22:55N 53°53' E 007°47'4 8.4
2018-Apr-16 22:29N 53°53' E 007°41'4 8.6
2018-Apr-16 21:58N 53°54' E 007°33'3 1.5
2018-Apr-16 20:02N 53°52' E 007°31'1 4.3
2018-Apr-16 19:54N 53°52' E 007°32'1 3.3
2018-Apr-16 19:30N 53°52' E 007°34'7413.0
2018-Apr-16 13:46N 53°35' E 005°31'414.9
2018-Apr-16 13:29N 53°33' E 005°25'714.9
2018-Apr-16 13:00N 53°31' E 005°14'815.1
2018-Apr-16 12:30N 53°28' E 005°02'815.5
2018-Apr-16 12:00N 53°25' E 004°50'714.6
2018-Apr-16 11:30N 53°20' E 004°41'915.6
2018-Apr-16 10:57N 53°13' E 004°33'715.4
2018-Apr-16 10:29N 53°07' E 004°26'715.5
2018-Apr-16 10:00N 53°00' E 004°21'815.4
2018-Apr-16 09:30N 52°53' E 004°17'815.1
2018-Apr-16 09:00N 52°47' E 004°10'815.1
2018-Apr-16 08:29N 52°41' E 004°02'915.3
2018-Apr-16 07:55N 52°35' E 003°51'715.5
2018-Apr-16 07:27N 52°30' E 003°43'715.6
2018-Apr-16 07:00N 52°24' E 003°36'816.0
2018-Apr-16 06:30N 52°17' E 003°31'816.2
2018-Apr-16 05:59N 52°09' E 003°27'916.3
2018-Apr-16 05:27N 52°00' E 003°24'916.3
2018-Apr-16 04:52N 51°51' E 003°21'614.6
2018-Apr-16 04:26N 51°46' E 003°16'4 9.5
2018-Apr-16 04:00N 51°41' E 003°14'816.7
2018-Apr-16 03:30N 51°34' E 003°10'917.9
2018-Apr-16 03:00N 51°27' E 003°00'714.0
2018-Apr-16 02:30N 51°24' E 003°10'815.5
2018-Apr-16 02:00N 51°25' E 003°23'714.3
2018-Apr-16 01:30N 51°26' E 003°34'4 8.6
2018-Apr-16 01:00N 51°26' E 003°41'612.7
2018-Apr-16 00:31N 51°21' E 003°47'611.8
2018-Apr-16 00:00N 51°23' E 003°56'4 7.9
2018-Apr-15 23:30N 51°25' E 004°02'510.3
2018-Apr-15 23:00N 51°23' E 004°10'5 9.9
2018-Apr-15 22:30N 51°20' E 004°16'4 7.1
2018-Apr-15 22:00N 51°17' E 004°15'0 0.3
2018-Apr-15 21:30N 51°17' E 004°15'0 0.0
2018-Apr-15 21:00N 51°17' E 004°15'1 2.5
2018-Apr-15 20:30N 51°16' E 004°14'0 0.4
2018-Apr-15 20:00N 51°15' E 004°14'0 0.0
2018-Apr-15 19:30N 51°15' E 004°14'0 0.0
2018-Apr-15 19:00N 51°15' E 004°14'0 0.0
2018-Apr-15 18:30N 51°15' E 004°14'0 0.0
2018-Apr-15 18:00N 51°15' E 004°14'0 0.0
2018-Apr-15 17:30N 51°15' E 004°14'0 0.0
2018-Apr-15 17:00N 51°15' E 004°14'0 0.0
2018-Apr-15 16:30N 51°15' E 004°14'0 0.0
2018-Apr-15 16:00N 51°15' E 004°14'0 0.0
2018-Apr-15 15:30N 51°15' E 004°14'0 0.0
2018-Apr-15 15:00N 51°15' E 004°14'0 0.0
2018-Apr-15 14:30N 51°15' E 004°14'0 0.0
2018-Apr-15 14:00N 51°15' E 004°14'0 0.0
2018-Apr-15 13:30N 51°15' E 004°14'0 0.0
2018-Apr-15 13:00N 51°15' E 004°14'0 0.0
2018-Apr-15 12:30N 51°15' E 004°14'0 0.0
2018-Apr-15 12:00N 51°15' E 004°14'0 0.0
2018-Apr-15 11:30N 51°15' E 004°14'0 0.0
2018-Apr-15 11:00N 51°15' E 004°14'0 0.0
2018-Apr-15 10:30N 51°15' E 004°14'0 0.0
2018-Apr-15 10:00N 51°15' E 004°14'0 0.0
2018-Apr-15 09:30N 51°15' E 004°14'0 0.0
2018-Apr-15 09:00N 51°15' E 004°14'0 0.0
2018-Apr-15 08:30N 51°15' E 004°14'0 0.0
2018-Apr-15 08:00N 51°15' E 004°14'0 0.0
2018-Apr-15 07:30N 51°15' E 004°14'0 0.0
2018-Apr-15 07:00N 51°15' E 004°14'0 0.0
2018-Apr-15 06:30N 51°15' E 004°14'0 0.0
2018-Apr-15 06:00N 51°15' E 004°14'0 0.0
2018-Apr-15 05:30N 51°15' E 004°14'0 0.0
2018-Apr-15 05:00N 51°15' E 004°14'0 0.0
2018-Apr-15 04:30N 51°15' E 004°14'0 0.0
2018-Apr-15 04:00N 51°15' E 004°14'0 0.0
2018-Apr-15 03:30N 51°15' E 004°14'0 0.0
2018-Apr-15 03:00N 51°15' E 004°14'0 0.0
2018-Apr-15 02:30N 51°15' E 004°14'0 0.0
2018-Apr-15 02:00N 51°15' E 004°14'0 0.0
2018-Apr-15 01:30N 51°15' E 004°14'0 0.0
2018-Apr-15 01:00N 51°15' E 004°14'0 0.0
2018-Apr-15 00:30N 51°15' E 004°14'0 0.0
2018-Apr-15 00:00N 51°15' E 004°14'0 0.0
2018-Apr-14 23:30N 51°15' E 004°14'0 0.0
2018-Apr-14 23:00N 51°15' E 004°14'0 0.0
2018-Apr-14 22:30N 51°15' E 004°14'0 0.0
2018-Apr-14 22:00N 51°15' E 004°14'0 0.0
2018-Apr-14 21:30N 51°15' E 004°14'0 0.0
2018-Apr-14 21:00N 51°15' E 004°14'0 0.0
2018-Apr-14 20:30N 51°15' E 004°14'0 0.0
2018-Apr-14 20:00N 51°15' E 004°14'0 0.0
2018-Apr-14 19:30N 51°15' E 004°14'0 0.0
2018-Apr-14 19:00N 51°15' E 004°14'0 0.0
2018-Apr-14 18:30N 51°15' E 004°14'0 0.0
2018-Apr-14 18:00N 51°15' E 004°14'0 0.0
2018-Apr-14 17:30N 51°15' E 004°14'0 0.0
2018-Apr-14 17:00N 51°15' E 004°14'1 2.7
2018-Apr-14 16:30N 51°17' E 004°15'0 0.1
2018-Apr-14 16:00N 51°17' E 004°15'0 0.5
2018-Apr-14 15:30N 51°17' E 004°15'2 4.4
2018-Apr-14 15:00N 51°19' E 004°16'5 9.2
2018-Apr-14 14:30N 51°23' E 004°13'611.1
2018-Apr-14 14:00N 51°22' E 004°04'5 9.1
2018-Apr-14 13:30N 51°25' E 003°58'713.5
2018-Apr-14 13:00N 51°21' E 003°49'713.3
2018-Apr-14 12:30N 51°26' E 003°42'510.7
2018-Apr-14 12:00N 51°25' E 003°33'714.0
2018-Apr-14 11:30N 51°24' E 003°22'816.1
2018-Apr-14 11:00N 51°24' E 003°09'815.3
2018-Apr-14 10:30N 51°23' E 002°57'815.3
2018-Apr-14 09:58N 51°22' E 002°44'4 7.8
2018-Apr-14 09:29N 51°22' E 002°38'612.8
2018-Apr-14 09:00N 51°22' E 002°28'714.5
2018-Apr-14 08:30N 51°18' E 002°18'713.1
2018-Apr-14 08:00N 51°15' E 002°09'713.2
2018-Apr-14 07:30N 51°12' E 001°59'714.0
2018-Apr-14 07:00N 51°08' E 001°50'714.0
2018-Apr-14 06:30N 51°03' E 001°43'714.2
2018-Apr-14 06:00N 50°58' E 001°35'1513.6
2018-Apr-14 04:54N 50°45' E 001°24'1013.8
2018-Apr-14 04:11N 50°37' E 001°14'1314.1
2018-Apr-14 03:15N 50°29' E 000°57'614.3
2018-Apr-14 02:49N 50°27' E 000°48'514.3
2018-Apr-14 02:30N 50°25' E 000°42'914.3
2018-Apr-14 01:54N 50°22' E 000°29'514.2
2018-Apr-14 01:30N 50°21' E 000°21'714.0
2018-Apr-14 01:01N 50°19' E 000°10'714.2
2018-Apr-14 00:30N 50°19' W 000°01'714.2
2018-Apr-14 00:01N 50°18' W 000°12'714.0
2018-Apr-13 23:30N 50°17' W 000°24'713.9
2018-Apr-13 22:59N 50°15' W 000°34'714.1
2018-Apr-13 22:31N 50°13' W 000°44'714.1
2018-Apr-13 22:00N 50°11' W 000°55'714.1
2018-Apr-13 21:31N 50°09' W 001°05'714.1
2018-Apr-13 21:01N 50°06' W 001°16'714.1
2018-Apr-13 20:30N 50°04' W 001°26'714.2
2018-Apr-13 20:00N 50°02' W 001°37'713.8
2018-Apr-13 19:30N 50°00' W 001°47'714.3
2018-Apr-13 19:01N 49°59' W 001°58'714.7
2018-Apr-13 18:31N 49°57' W 002°09'1714.5
2018-Apr-13 17:22N 49°52' W 002°34'614.4
2018-Apr-13 16:57N 49°51' W 002°43'614.4
2018-Apr-13 16:30N 49°49' W 002°52'814.4
2018-Apr-13 15:56N 49°47' W 003°05'715.4
2018-Apr-13 15:29N 49°45' W 003°15'715.3
2018-Apr-13 15:00N 49°43' W 003°25'54514.7
2018-Apr-12 02:00N 47°48' W 016°54'3417.2 200 / 34993.9 13.011.3
2018-Apr-12 00:00N 47°36' W 017°42'19516.3 270 / 22996.1 12.010.2
2018-Apr-11 12:00N 46°30' W 022°12'9415.7 230 / 191003.9 2.2 14.014.0
2018-Apr-11 06:00N 45°54' W 024°18'19015.8 320 / 161008.2 15.013.3
2018-Apr-10 18:00N 44°36' W 028°24'   240 / 171016.7 5.4 20.016.9

Dump ship's entire track history